sensor_id;sensor_type;location;lat;lon;timestamp;temperature;humidity
12843;DHT22;35724;49.324;-123.118;2023-01-29T00:01:30;24.00;35.20
12843;DHT22;35724;49.324;-123.118;2023-01-29T00:11:42;23.90;35.70
12843;DHT22;35724;49.324;-123.118;2023-01-29T00:21:50;23.80;35.70
12843;DHT22;35724;49.324;-123.118;2023-01-29T00:31:59;23.80;35.60
12843;DHT22;35724;49.324;-123.118;2023-01-29T00:42:06;23.80;35.60
12843;DHT22;35724;49.324;-123.118;2023-01-29T00:52:31;23.60;35.60
12843;DHT22;35724;49.324;-123.118;2023-01-29T01:02:52;23.50;35.50
12843;DHT22;35724;49.324;-123.118;2023-01-29T01:26:56;23.30;34.90
12843;DHT22;35724;49.324;-123.118;2023-01-29T01:37:39;22.70;28.90
12843;DHT22;35724;49.324;-123.118;2023-01-29T01:47:50;22.50;29.00
12843;DHT22;35724;49.324;-123.118;2023-01-29T01:58:36;22.40;24.70
12843;DHT22;35724;49.324;-123.118;2023-01-29T02:08:55;21.60;23.20
12843;DHT22;35724;49.324;-123.118;2023-01-29T02:54:53;23.20;30.30
12843;DHT22;35724;49.324;-123.118;2023-01-29T03:05:14;23.50;30.60
12843;DHT22;35724;49.324;-123.118;2023-01-29T03:15:38;23.70;30.80
12843;DHT22;35724;49.324;-123.118;2023-01-29T03:26:18;23.80;30.80
12843;DHT22;35724;49.324;-123.118;2023-01-29T03:36:50;23.90;31.00
12843;DHT22;35724;49.324;-123.118;2023-01-29T03:47:40;24.00;31.10
12843;DHT22;35724;49.324;-123.118;2023-01-29T03:58:34;24.20;31.60
12843;DHT22;35724;49.324;-123.118;2023-01-29T07:04:56;26.00;32.40
12843;DHT22;35724;49.324;-123.118;2023-01-29T07:16:16;26.10;32.20
12843;DHT22;35724;49.324;-123.118;2023-01-29T08:53:47;26.50;31.80
12843;DHT22;35724;49.324;-123.118;2023-01-29T14:25:26;27.40;29.80
12843;DHT22;35724;49.324;-123.118;2023-01-29T16:52:22;27.70;29.10
12843;DHT22;35724;49.324;-123.118;2023-01-29T17:04:06;27.70;29.10
12843;DHT22;35724;49.324;-123.118;2023-01-29T17:14:18;27.30;26.70
12843;DHT22;35724;49.324;-123.118;2023-01-29T17:24:29;26.90;26.30
12843;DHT22;35724;49.324;-123.118;2023-01-29T17:34:39;26.80;27.20
12843;DHT22;35724;49.324;-123.118;2023-01-29T17:44:53;26.70;26.70
12843;DHT22;35724;49.324;-123.118;2023-01-29T17:55:08;26.60;26.30
12843;DHT22;35724;49.324;-123.118;2023-01-29T18:28:58;26.30;24.30
12843;DHT22;35724;49.324;-123.118;2023-01-29T18:39:08;26.20;22.70
12843;DHT22;35724;49.324;-123.118;2023-01-29T18:49:20;26.10;23.00
12843;DHT22;35724;49.324;-123.118;2023-01-29T18:59:27;26.10;23.00
12843;DHT22;35724;49.324;-123.118;2023-01-29T19:09:55;25.90;23.40
12843;DHT22;35724;49.324;-123.118;2023-01-29T19:20:03;25.80;24.50
12843;DHT22;35724;49.324;-123.118;2023-01-29T19:30:15;25.70;23.80
12843;DHT22;35724;49.324;-123.118;2023-01-29T19:40:25;25.60;22.80
12843;DHT22;35724;49.324;-123.118;2023-01-29T19:50:34;25.50;23.00
12843;DHT22;35724;49.324;-123.118;2023-01-29T20:00:40;25.50;24.00
12843;DHT22;35724;49.324;-123.118;2023-01-29T20:10:52;25.50;23.90
12843;DHT22;35724;49.324;-123.118;2023-01-29T20:20:59;25.60;24.40
12843;DHT22;35724;49.324;-123.118;2023-01-29T20:31:12;25.70;23.80
12843;DHT22;35724;49.324;-123.118;2023-01-29T20:41:20;25.70;23.70
12843;DHT22;35724;49.324;-123.118;2023-01-29T20:51:28;25.70;23.50
12843;DHT22;35724;49.324;-123.118;2023-01-29T21:01:35;25.70;23.90
12843;DHT22;35724;49.324;-123.118;2023-01-29T21:11:44;25.70;22.60
12843;DHT22;35724;49.324;-123.118;2023-01-29T21:21:52;25.60;22.80
12843;DHT22;35724;49.324;-123.118;2023-01-29T21:32:07;25.70;22.60
12843;DHT22;35724;49.324;-123.118;2023-01-29T22:43:56;24.00;21.50
12843;DHT22;35724;49.324;-123.118;2023-01-29T23:07:15;23.50;21.60
12843;DHT22;35724;49.324;-123.118;2023-01-29T23:30:54;23.10;21.60
12843;DHT22;35724;49.324;-123.118;2023-01-29T23:42:15;23.00;21.80
12843;DHT22;35724;49.324;-123.118;2023-01-29T23:54:03;22.90;21.90
